Time;durP1;ratioP1;P1;durP2;ratioP2;P2;SDS_P1;SDS_P2;PMS_P1;PMS_P2;Temp;Humidity;BMP_temperature;BMP_pressure;BME280_temperature;BME280_humidity;BME280_pressure;Samples;Min_cycle;Max_cycle;Signal;HPM_P1;HPM_P2
2023/07/10 00:02:09;;;;;;;81.90;22.43;;;24.80;99.90;;;;;;5100139;28;20408;-82
2023/07/10 00:04:35;;;;;;;80.80;24.10;;;24.80;99.90;;;;;;5099939;28;20545;-82
2023/07/10 00:07:01;;;;;;;96.30;27.20;;;24.80;99.90;;;;;;5099594;28;20419;-82
2023/07/10 00:09:27;;;;;;;80.67;23.37;;;24.80;99.90;;;;;;5099731;28;20199;-82
2023/07/10 00:11:52;;;;;;;79.50;24.43;;;24.90;99.90;;;;;;5081128;28;20248;-82
2023/07/10 00:14:23;;;;;;;87.53;26.73;;;24.90;99.90;;;;;;5081476;28;20194;-82
2023/07/10 00:16:50;;;;;;;78.57;22.50;;;24.80;99.90;;;;;;5099537;28;20184;-82
2023/07/10 00:19:16;;;;;;;81.00;21.40;;;24.70;99.90;;;;;;5098740;28;20429;-82
2023/07/10 00:21:42;;;;;;;81.00;22.10;;;24.70;99.90;;;;;;5080552;28;20413;-82
2023/07/10 00:24:08;;;;;;;83.00;22.30;;;24.70;99.90;;;;;;5099551;28;20458;-82
2023/07/10 00:26:37;;;;;;;79.67;20.93;;;24.70;99.90;;;;;;5099556;28;20695;-82
2023/07/10 00:29:17;;;;;;;79.23;27.23;;;24.70;99.90;;;;;;5099113;28;20430;-82
2023/07/10 00:31:42;;;;;;;84.30;29.03;;;24.80;99.90;;;;;;5080720;28;20416;-82
2023/07/10 00:34:14;;;;;;;83.80;25.33;;;24.80;99.90;;;;;;5099542;28;20495;-81
2023/07/10 00:36:41;;;;;;;84.23;31.30;;;24.80;99.90;;;;;;5100019;28;20700;-82
2023/07/10 00:39:24;;;;;;;80.87;27.97;;;24.80;99.90;;;;;;5099628;28;20456;-82
2023/07/10 00:42:00;;;;;;;81.77;26.23;;;24.70;99.90;;;;;;5098876;28;20831;-82
2023/07/10 00:44:51;;;;;;;79.57;27.63;;;24.60;99.90;;;;;;5081859;28;20887;-82
2023/07/10 00:47:21;;;;;;;81.17;24.33;;;24.60;99.90;;;;;;5099462;28;20385;-82
2023/07/10 00:50:19;;;;;;;82.40;23.00;;;24.60;99.90;;;;;;5080830;28;20833;-82
2023/07/10 00:52:47;;;;;;;77.73;21.63;;;24.50;99.90;;;;;;5097686;28;20911;-82
2023/07/10 00:55:26;;;;;;;77.63;23.07;;;24.40;99.90;;;;;;5098622;28;20412;-82
2023/07/10 00:58:15;;;;;;;82.60;22.80;;;24.40;99.90;;;;;;5098536;28;20420;-82
2023/07/10 01:01:05;;;;;;;85.77;21.27;;;24.50;99.90;;;;;;5085679;28;20424;-82
2023/07/10 01:03:31;;;;;;;80.83;21.33;;;24.40;99.90;;;;;;5081213;28;20558;-82
2023/07/10 01:06:02;;;;;;;80.27;19.70;;;24.30;99.90;;;;;;5080417;28;20426;-82
2023/07/10 01:08:28;;;;;;;78.40;17.63;;;24.40;99.90;;;;;;5080652;28;20443;-84
2023/07/10 01:10:54;;;;;;;78.40;19.27;;;24.40;99.90;;;;;;5080143;28;20420;-81
2023/07/10 01:13:20;;;;;;;80.20;20.00;;;24.40;99.90;;;;;;5080324;28;20831;-81
2023/07/10 01:15:46;;;;;;;80.77;19.50;;;24.40;99.90;;;;;;5080247;28;20196;-81
2023/07/10 01:18:11;;;;;;;79.77;18.63;;;24.40;99.90;;;;;;5097895;28;20254;-81
2023/07/10 01:20:51;;;;;;;78.80;18.20;;;24.40;99.90;;;;;;5098443;28;20630;-81
2023/07/10 01:23:18;;;;;;;89.50;19.47;;;24.30;99.90;;;;;;5097837;28;20186;-81
2023/07/10 01:25:58;;;;;;;78.10;18.37;;;24.20;99.90;;;;;;5098688;28;20498;-81
2023/07/10 01:28:24;;;;;;;79.90;19.13;;;24.20;99.90;;;;;;5098273;28;20801;-83
2023/07/10 01:30:53;;;;;;;86.60;22.23;;;24.40;99.90;;;;;;5098312;28;20772;-80
2023/07/10 01:33:25;;;;;;;86.37;24.13;;;24.40;99.90;;;;;;5097775;28;20400;-81
2023/07/10 01:35:55;;;;;;;80.40;19.73;;;24.40;99.90;;;;;;5097659;28;20494;-81
2023/07/10 01:38:27;;;;;;;79.80;20.70;;;24.30;99.90;;;;;;5097586;28;20463;-81
2023/07/10 01:40:54;;;;;;;85.30;23.90;;;24.40;99.90;;;;;;5098267;28;20460;-81
2023/07/10 01:43:20;;;;;;;100.10;23.67;;;24.40;99.90;;;;;;5097922;28;20468;-81
2023/07/10 01:45:48;;;;;;;85.97;24.30;;;24.20;99.90;;;;;;5098240;28;20412;-81
2023/07/10 01:48:16;;;;;;;91.73;26.60;;;24.20;99.90;;;;;;5079492;28;20197;-82
2023/07/10 01:50:42;;;;;;;90.40;24.33;;;24.20;99.90;;;;;;5097657;28;20848;-81
2023/07/10 01:53:10;;;;;;;87.33;25.80;;;24.00;99.90;;;;;;5097929;28;20402;-81
2023/07/10 01:55:44;;;;;;;91.40;26.70;;;24.00;99.90;;;;;;5097978;28;20473;-81
2023/07/10 01:58:11;;;;;;;85.63;25.77;;;24.00;99.90;;;;;;5079428;28;20451;-83
2023/07/10 02:00:38;;;;;;;87.90;24.53;;;24.10;99.90;;;;;;5098208;28;20423;-80
2023/07/10 02:03:04;;;;;;;88.23;25.77;;;24.20;99.90;;;;;;5079566;28;20407;-82
2023/07/10 02:05:29;;;;;;;84.10;24.00;;;24.10;99.90;;;;;;5097247;28;20418;-81
2023/07/10 02:07:55;;;;;;;86.00;22.97;;;24.10;99.90;;;;;;5098028;28;20662;-81
2023/07/10 02:10:21;;;;;;;83.00;25.40;;;24.10;99.90;;;;;;5097268;28;20168;-81
2023/07/10 02:12:46;;;;;;;81.97;21.00;;;24.10;99.90;;;;;;5079028;28;20238;-81
2023/07/10 02:15:12;;;;;;;85.60;24.77;;;24.10;99.90;;;;;;5097962;28;20169;-81
2023/07/10 02:17:38;;;;;;;83.90;22.27;;;24.10;99.90;;;;;;5097034;28;20190;-81
2023/07/10 02:20:05;;;;;;;86.70;22.00;;;24.00;99.90;;;;;;5078505;28;20200;-81
2023/07/10 02:22:32;;;;;;;83.90;24.10;;;24.10;99.90;;;;;;5098134;28;20165;-81
2023/07/10 02:24:57;;;;;;;81.70;23.80;;;24.00;99.90;;;;;;5079313;28;20402;-81
2023/07/10 02:27:23;;;;;;;83.27;29.17;;;24.00;99.90;;;;;;5078929;28;20413;-82
2023/07/10 02:29:48;;;;;;;86.73;29.10;;;24.10;99.90;;;;;;5096799;28;20167;-81
2023/07/10 02:32:14;;;;;;;85.17;24.23;;;24.00;99.90;;;;;;5097647;28;20178;-81
2023/07/10 02:34:40;;;;;;;88.67;26.03;;;24.00;99.90;;;;;;5097797;28;20175;-81
2023/07/10 02:37:05;;;;;;;88.00;26.77;;;24.00;99.90;;;;;;5096761;28;20216;-81
2023/07/10 02:39:31;;;;;;;88.03;25.90;;;24.00;99.90;;;;;;5078705;28;20227;-81
2023/07/10 02:41:57;;;;;;;81.17;24.30;;;23.90;99.90;;;;;;5097499;28;20693;-81
2023/07/10 02:44:22;;;;;;;80.60;24.40;;;23.90;99.90;;;;;;5097492;28;20247;-81
2023/07/10 02:46:48;;;;;;;87.40;25.23;;;23.80;99.90;;;;;;5097877;28;20523;-83
2023/07/10 02:49:14;;;;;;;79.00;22.13;;;23.70;99.90;;;;;;5078648;28;20696;-83
2023/07/10 02:51:39;;;;;;;86.30;21.97;;;23.60;99.90;;;;;;5097126;28;20176;-83
2023/07/10 02:54:10;;;;;;;88.67;22.87;;;23.60;99.90;;;;;;5096988;28;20171;-82
2023/07/10 02:56:36;;;;;;;82.20;22.13;;;23.50;99.90;;;;;;5078634;28;20200;-83
2023/07/10 02:59:01;;;;;;;84.83;23.27;;;23.50;99.90;;;;;;5097122;28;20422;-83
2023/07/10 03:01:29;;;;;;;89.37;21.83;;;23.50;99.90;;;;;;5078066;28;20201;-82
2023/07/10 03:03:55;;;;;;;85.20;22.70;;;23.30;99.90;;;;;;5078269;28;20199;-82
2023/07/10 03:06:23;;;;;;;87.20;23.80;;;23.30;99.90;;;;;;5096898;28;20901;-82
2023/07/10 03:08:50;;;;;;;82.30;23.33;;;23.30;99.90;;;;;;5096871;28;20180;-83
2023/07/10 03:11:17;;;;;;;82.17;21.57;;;23.30;99.90;;;;;;5078434;28;20410;-82
2023/07/10 03:13:43;;;;;;;87.13;22.67;;;23.30;99.90;;;;;;5096461;28;20529;-83
2023/07/10 03:16:14;;;;;;;88.33;23.27;;;23.30;99.90;;;;;;5096398;28;20473;-83
2023/07/10 03:18:40;;;;;;;88.57;23.53;;;23.20;99.90;;;;;;5078757;28;20517;-82
2023/07/10 03:21:07;;;;;;;89.23;24.20;;;23.00;99.90;;;;;;5078106;28;20445;-83
2023/07/10 03:23:33;;;;;;;88.47;26.40;;;22.70;99.90;;;;;;5078528;28;20429;-83
2023/07/10 03:25:58;;;;;;;86.07;23.43;;;22.60;99.90;;;;;;5096757;28;20454;-83
2023/07/10 03:28:24;;;;;;;90.30;24.30;;;22.60;99.90;;;;;;5096347;28;20432;-83
2023/07/10 03:30:50;;;;;;;88.10;23.43;;;22.60;99.90;;;;;;5096779;28;20696;-83
2023/07/10 03:33:17;;;;;;;84.60;22.13;;;22.60;99.90;;;;;;5100352;28;20171;-82
2023/07/10 03:35:48;;;;;;;85.40;22.80;;;22.60;99.90;;;;;;5100091;28;20444;-83
2023/07/10 03:38:14;;;;;;;84.93;22.63;;;22.60;99.90;;;;;;5082247;28;20848;-83
2023/07/10 03:40:52;;;;;;;83.70;22.10;;;22.60;99.90;;;;;;5081195;28;20458;-83
2023/07/10 03:43:18;;;;;;;87.80;21.50;;;22.60;99.90;;;;;;5099516;28;20839;-83
2023/07/10 03:45:44;;;;;;;79.47;19.53;;;22.60;99.90;;;;;;5100281;28;20409;-83
2023/07/10 03:48:10;;;;;;;84.80;21.73;;;22.60;99.90;;;;;;5100313;28;20427;-82
2023/07/10 03:50:36;;;;;;;82.03;17.90;;;22.50;99.90;;;;;;5099941;28;20232;-82
2023/07/10 03:53:02;;;;;;;85.40;20.27;;;22.50;99.90;;;;;;5100605;28;20774;-83
2023/07/10 03:55:28;;;;;;;87.70;21.30;;;22.50;99.90;;;;;;5099494;28;20401;-83
2023/07/10 03:57:53;;;;;;;85.93;19.83;;;22.60;99.90;;;;;;5098932;28;20194;-83
2023/07/10 04:00:19;;;;;;;83.47;20.80;;;22.40;99.90;;;;;;5081836;28;20531;-82
2023/07/10 04:02:45;;;;;;;80.70;18.40;;;22.40;99.90;;;;;;5082016;28;20202;-83
2023/07/10 04:05:10;;;;;;;88.93;20.33;;;22.50;99.90;;;;;;5099837;28;20182;-83
2023/07/10 04:07:36;;;;;;;85.67;19.07;;;22.50;99.90;;;;;;5081691;28;20563;-83
2023/07/10 04:10:03;;;;;;;82.43;20.93;;;22.40;99.90;;;;;;5099719;28;20402;-83
2023/07/10 04:12:29;;;;;;;86.80;21.20;;;22.50;99.90;;;;;;5099499;28;20189;-83
2023/07/10 04:14:55;;;;;;;83.67;20.40;;;22.50;99.90;;;;;;5099827;28;20382;-83
2023/07/10 04:17:20;;;;;;;85.20;20.47;;;22.60;99.90;;;;;;5098742;28;20190;-83
2023/07/10 04:19:46;;;;;;;84.67;20.90;;;22.70;99.90;;;;;;5098980;28;20673;-82
2023/07/10 04:22:12;;;;;;;85.07;20.60;;;22.70;99.90;;;;;;5099865;28;20174;-82
2023/07/10 04:24:37;;;;;;;90.33;21.47;;;22.60;99.90;;;;;;5080602;28;20216;-83
2023/07/10 04:27:03;;;;;;;89.30;21.57;;;22.60;99.90;;;;;;5098942;28;20171;-83
2023/07/10 04:29:29;;;;;;;91.13;20.33;;;22.70;99.90;;;;;;5098693;28;20219;-83
2023/07/10 04:31:54;;;;;;;88.57;19.60;;;22.70;99.90;;;;;;5080665;28;20175;-83
2023/07/10 04:34:20;;;;;;;88.03;19.23;;;22.70;99.90;;;;;;5098929;28;20169;-82
2023/07/10 04:36:45;;;;;;;87.33;20.30;;;22.80;99.90;;;;;;5099948;28;20192;-83
2023/07/10 04:39:11;;;;;;;82.93;17.50;;;22.80;99.90;;;;;;5099407;28;20273;-83
2023/07/10 04:41:38;;;;;;;89.53;19.23;;;22.70;99.90;;;;;;5098395;28;20222;-83
2023/07/10 04:44:04;;;;;;;82.37;18.83;;;22.70;99.90;;;;;;5098431;28;20159;-82
2023/07/10 04:46:33;;;;;;;83.10;18.73;;;22.60;99.90;;;;;;5098162;28;20841;-82
2023/07/10 04:48:58;;;;;;;83.20;16.70;;;22.60;99.90;;;;;;5079881;28;20433;-82
2023/07/10 04:51:24;;;;;;;81.97;14.67;;;22.70;99.90;;;;;;5080714;28;20440;-83
2023/07/10 04:53:50;;;;;;;80.57;14.10;;;22.60;99.90;;;;;;5098174;28;20208;-83
2023/07/10 04:56:17;;;;;;;87.30;18.67;;;22.60;99.90;;;;;;5079836;28;20198;-82
2023/07/10 04:58:53;;;;;;;80.10;14.90;;;22.60;99.90;;;;;;5079814;28;20278;-83
2023/07/10 05:01:22;;;;;;;86.30;15.40;;;22.70;99.90;;;;;;5098943;28;20466;-83
2023/07/10 05:03:48;;;;;;;80.83;12.70;;;22.80;99.90;;;;;;5098633;28;20408;-82
2023/07/10 05:06:15;;;;;;;78.77;13.27;;;22.80;99.90;;;;;;5080115;28;20504;-82
2023/07/10 05:08:41;;;;;;;77.23;10.70;;;22.70;99.90;;;;;;5080730;28;20191;-82
2023/07/10 05:11:07;;;;;;;78.33;11.17;;;22.80;99.90;;;;;;5079859;28;20413;-82
2023/07/10 05:13:32;;;;;;;78.33;11.10;;;22.80;99.90;;;;;;5098234;28;20505;-82
2023/07/10 05:15:59;;;;;;;72.30;9.37;;;22.70;97.30;;;;;;5097969;28;20477;-83
2023/07/10 05:18:29;;;;;;;79.80;10.67;;;22.60;94.90;;;;;;5097769;28;20192;-82
2023/07/10 05:20:57;;;;;;;73.47;8.70;;;22.60;97.30;;;;;;5098748;28;20416;-83
2023/07/10 05:23:23;;;;;;;75.47;9.70;;;22.70;92.90;;;;;;5098083;28;20406;-83
2023/07/10 05:26:10;;;;;;;76.77;8.67;;;22.50;94.00;;;;;;5097818;28;20404;-83
2023/07/10 05:28:37;;;;;;;75.33;8.57;;;22.60;93.60;;;;;;5097763;28;20194;-82
2023/07/10 05:31:06;;;;;;;75.93;8.53;;;22.60;93.50;;;;;;5078889;28;20416;-81
2023/07/10 05:33:32;;;;;;;75.30;11.70;;;22.60;91.40;;;;;;5096026;28;20429;-82
2023/07/10 05:36:00;;;;;;;74.87;8.90;;;22.60;91.20;;;;;;5095592;28;20449;-82
2023/07/10 05:38:28;;;;;;;73.90;8.90;;;22.60;91.50;;;;;;5095763;28;20428;-82
2023/07/10 05:40:54;;;;;;;79.70;7.83;;;22.60;85.00;;;;;;5095973;28;20802;-83
2023/07/10 05:43:21;;;;;;;73.23;8.00;;;22.50;81.70;;;;;;5095353;28;20458;-82
2023/07/10 05:45:48;;;;;;;74.40;8.13;;;22.50;85.40;;;;;;5077465;28;20209;-82
2023/07/10 05:48:13;;;;;;;77.17;8.13;;;22.60;85.20;;;;;;5095339;28;20428;-82
2023/07/10 05:50:41;;;;;;;71.93;8.07;;;22.70;75.40;;;;;;5096183;28;20381;-82
2023/07/10 05:53:07;;;;;;;71.50;7.43;;;22.70;75.80;;;;;;5078564;28;20174;-81
2023/07/10 05:55:33;;;;;;;75.20;8.07;;;22.80;73.00;;;;;;5095862;28;20773;-82
2023/07/10 05:57:58;;;;;;;73.73;8.40;;;22.70;74.50;;;;;;5096055;28;20520;-81
2023/07/10 06:00:24;;;;;;;73.10;8.63;;;22.70;72.80;;;;;;5097034;28;20163;-82
2023/07/10 06:02:50;;;;;;;71.37;7.60;;;22.80;70.20;;;;;;5100685;28;20174;-82
2023/07/10 06:05:16;;;;;;;76.67;7.70;;;22.80;71.40;;;;;;5103608;28;20170;-83
2023/07/10 06:07:41;;;;;;;76.40;8.13;;;22.80;62.90;;;;;;5101234;28;20198;-82
2023/07/10 06:10:07;;;;;;;73.30;8.20;;;22.70;66.50;;;;;;5099077;28;20247;-83
2023/07/10 06:12:33;;;;;;;77.67;8.30;;;22.80;68.50;;;;;;5078008;28;20190;-82
2023/07/10 06:14:59;;;;;;;75.27;9.40;;;22.80;67.50;;;;;;5096641;28;20413;-82
2023/07/10 06:17:24;;;;;;;74.77;9.10;;;22.90;64.00;;;;;;5096193;28;20665;-82
2023/07/10 06:19:50;;;;;;;85.43;10.17;;;22.80;60.30;;;;;;5096201;28;20174;-82
2023/07/10 06:22:16;;;;;;;75.27;10.67;;;22.80;65.20;;;;;;5095897;28;20262;-83
2023/07/10 06:24:41;;;;;;;81.23;9.50;;;22.70;67.90;;;;;;5095617;28;20159;-81
2023/07/10 06:27:07;;;;;;;74.17;9.70;;;22.70;70.30;;;;;;5095589;28;20190;-81
2023/07/10 06:29:34;;;;;;;73.03;10.17;;;22.70;75.20;;;;;;5077512;28;20197;-80
2023/07/10 06:32:00;;;;;;;73.37;8.90;;;22.70;75.00;;;;;;5096019;28;20557;-80
2023/07/10 06:34:26;;;;;;;75.27;9.63;;;22.90;72.50;;;;;;5080652;28;20420;-81
2023/07/10 06:36:51;;;;;;;76.10;9.40;;;22.90;67.30;;;;;;5081849;28;20449;-81
2023/07/10 06:39:17;;;;;;;72.43;9.90;;;23.00;70.30;;;;;;5096638;28;20184;-82
2023/07/10 06:41:43;;;;;;;73.00;9.80;;;23.00;67.90;;;;;;5098138;28;20163;-81
2023/07/10 06:44:09;;;;;;;73.40;9.13;;;23.10;69.30;;;;;;5081544;28;20484;-82
2023/07/10 06:46:35;;;;;;;80.80;10.23;;;23.10;69.10;;;;;;5080977;28;20213;-81
2023/07/10 06:49:01;;;;;;;73.60;9.33;;;23.20;67.80;;;;;;5096777;28;20187;-81
2023/07/10 06:51:26;;;;;;;72.80;8.80;;;23.40;60.80;;;;;;5096542;28;20746;-81
2023/07/10 06:53:52;;;;;;;74.20;8.83;;;23.50;59.00;;;;;;5096783;28;20408;-81
2023/07/10 06:56:18;;;;;;;74.17;8.67;;;23.70;50.10;;;;;;5096951;28;20237;-81
2023/07/10 06:58:43;;;;;;;75.20;9.27;;;23.80;51.00;;;;;;5096736;28;20291;-81
2023/07/10 07:01:09;;;;;;;71.57;7.60;;;23.90;48.70;;;;;;5078523;28;20163;-81
2023/07/10 07:03:35;;;;;;;73.20;7.70;;;24.00;39.90;;;;;;5096982;28;20191;-81
2023/07/10 07:06:08;;;;;;;75.20;6.53;;;23.90;41.90;;;;;;5097612;28;20662;-80
2023/07/10 07:08:36;;;;;;;73.00;6.90;;;23.90;39.00;;;;;;5081660;28;20566;-81
2023/07/10 07:11:02;;;;;;;73.27;7.80;;;24.00;39.50;;;;;;5100092;28;20905;-81
2023/07/10 07:13:28;;;;;;;84.30;8.93;;;24.10;37.70;;;;;;5099414;28;20432;-81
2023/07/10 07:15:55;;;;;;;77.93;8.27;;;24.10;40.30;;;;;;5099474;28;20566;-81
2023/07/10 07:18:22;;;;;;;73.80;7.50;;;24.20;33.00;;;;;;5099369;28;20419;-81
2023/07/10 07:20:48;;;;;;;73.27;8.27;;;24.20;35.50;;;;;;5098505;28;20924;-81
2023/07/10 07:23:14;;;;;;;73.67;7.93;;;24.20;34.00;;;;;;5080682;28;20741;-80
2023/07/10 07:25:43;;;;;;;73.83;8.77;;;24.30;28.30;;;;;;5099092;28;20407;-80
2023/07/10 07:28:09;;;;;;;72.10;7.50;;;24.40;27.20;;;;;;5099697;28;20447;-81
2023/07/10 07:30:35;;;;;;;71.37;7.20;;;24.40;26.60;;;;;;5099873;28;20760;-79
2023/07/10 07:33:01;;;;;;;71.50;7.67;;;24.40;26.30;;;;;;5100778;28;20425;-81
2023/07/10 07:35:27;;;;;;;71.23;7.00;;;24.30;28.70;;;;;;5100887;28;20427;-82
2023/07/10 07:37:53;;;;;;;71.67;6.60;;;24.20;25.50;;;;;;5102207;28;20450;-81
2023/07/10 07:40:19;;;;;;;73.77;7.40;;;24.00;29.20;;;;;;5082991;28;20459;-81
2023/07/10 07:42:46;;;;;;;74.40;6.73;;;24.10;31.10;;;;;;5101815;28;20631;-80
2023/07/10 07:45:13;;;;;;;69.47;5.57;;;24.00;24.20;;;;;;5101799;28;20193;-80
2023/07/10 07:47:40;;;;;;;75.77;6.57;;;24.00;28.10;;;;;;5099962;28;20453;-80
2023/07/10 07:50:07;;;;;;;70.90;5.60;;;23.90;24.60;;;;;;5100256;28;20772;-81
2023/07/10 07:52:33;;;;;;;68.77;5.77;;;23.80;26.90;;;;;;5101189;28;20859;-81
2023/07/10 07:54:59;;;;;;;73.70;8.10;;;23.80;25.90;;;;;;5100352;28;20406;-80
2023/07/10 07:57:25;;;;;;;68.10;5.60;;;23.80;19.50;;;;;;5099977;28;21030;-80
2023/07/10 07:59:52;;;;;;;72.10;8.60;;;23.80;19.10;;;;;;5100330;28;20183;-81
2023/07/10 08:02:17;;;;;;;70.93;8.80;;;23.90;9.90;;;;;;5100084;28;20168;-81
2023/07/10 08:04:43;;;;;;;71.43;7.17;;;23.80;9.40;;;;;;5081817;28;20410;-80
2023/07/10 08:07:09;;;;;;;69.73;8.33;;;23.90;14.20;;;;;;5099081;28;20169;-81
2023/07/10 08:09:35;;;;;;;71.40;9.27;;;23.90;11.60;;;;;;5099333;28;20659;-80
2023/07/10 08:12:01;;;;;;;70.70;7.50;;;23.80;10.30;;;;;;5100033;28;20639;-80
2023/07/10 08:14:27;;;;;;;70.17;8.17;;;23.90;12.80;;;;;;5099784;28;20236;-81
2023/07/10 08:16:54;;;;;;;70.30;6.63;;;23.80;6.40;;;;;;5080434;28;20449;-81
2023/07/10 08:19:19;;;;;;;68.20;5.80;;;23.70;9.20;;;;;;5081550;28;20467;-81
2023/07/10 08:21:47;;;;;;;70.17;7.17;;;23.70;14.70;;;;;;5081151;28;20413;-81
2023/07/10 08:24:12;;;;;;;70.87;9.03;;;23.80;9.20;;;;;;5099182;28;20160;-81
2023/07/10 08:26:38;;;;;;;71.10;11.77;;;24.00;10.70;;;;;;5099061;28;20408;-81
2023/07/10 08:29:28;;;;;;;70.20;11.00;;;24.10;6.20;;;;;;5099144;28;20192;-81
2023/07/10 08:31:56;;;;;;;71.80;13.07;;;24.20;1.00;;;;;;5099099;28;20160;-80
2023/07/10 08:34:25;;;;;;;71.23;10.20;;;24.10;1.00;;;;;;5099309;28;20858;-80
2023/07/10 08:36:52;;;;;;;69.87;11.17;;;23.90;1.00;;;;;;5098816;28;20484;-81
2023/07/10 08:39:19;;;;;;;71.67;13.60;;;24.00;1.00;;;;;;5098820;28;20497;-81
2023/07/10 08:41:53;;;;;;;70.77;10.87;;;24.00;1.00;;;;;;5080688;28;20442;-80
2023/07/10 08:44:20;;;;;;;74.17;12.50;;;24.00;1.00;;;;;;5099139;28;20782;-81
2023/07/10 08:46:47;;;;;;;74.60;13.00;;;24.10;1.00;;;;;;5098453;28;20401;-81
2023/07/10 08:49:31;;;;;;;70.40;9.80;;;24.00;1.00;;;;;;5099227;28;20414;-81
2023/07/10 08:52:21;;;;;;;67.97;9.53;;;24.20;1.00;;;;;;5081058;28;20874;-81
2023/07/10 08:54:48;;;;;;;70.57;9.07;;;24.10;1.00;;;;;;5098982;28;20408;-81
2023/07/10 08:57:33;;;;;;;71.30;12.57;;;24.20;1.00;;;;;;5097888;28;20445;-78
2023/07/10 09:00:09;;;;;;;66.87;4.87;;;24.50;1.00;;;;;;5079438;28;20864;-81
2023/07/10 09:02:48;;;;;;;66.70;4.30;;;24.60;1.00;;;;;;5098390;28;20403;-81
2023/07/10 09:05:26;;;;;;;68.80;4.50;;;24.70;1.00;;;;;;5098758;28;20406;-81
2023/07/10 09:07:54;;;;;;;70.20;5.50;;;24.60;1.00;;;;;;5098983;28;20409;-80
2023/07/10 09:10:45;;;;;;;69.97;4.63;;;24.70;1.00;;;;;;5098255;28;20484;-80
2023/07/10 09:13:47;;;;;;;67.10;4.27;;;24.70;1.00;;;;;;5098130;28;20800;-81
2023/07/10 09:16:17;;;;;;;68.20;4.20;;;24.60;1.00;;;;;;5053125;28;20466;-81
2023/07/10 09:18:52;;;;;;;66.67;3.57;;;24.50;1.00;;;;;;5079990;28;20455;-80
2023/07/10 09:21:25;;;;;;;67.03;3.07;;;24.50;1.00;;;;;;5098109;28;20491;-81
2023/07/10 09:23:51;;;;;;;67.70;2.80;;;24.60;1.00;;;;;;5098633;28;20407;-81
2023/07/10 09:26:29;;;;;;;68.20;3.10;;;24.80;1.00;;;;;;5098131;28;20433;-81
2023/07/10 09:29:11;;;;;;;66.57;2.93;;;24.90;1.00;;;;;;5079475;28;20461;-81
2023/07/10 09:32:03;;;;;;;67.00;2.80;;;25.10;1.00;;;;;;5097694;28;20395;-81
2023/07/10 09:34:33;;;;;;;67.10;3.20;;;25.20;1.00;;;;;;5094116;28;20781;-80
2023/07/10 09:37:02;;;;;;;69.20;3.20;;;25.30;1.00;;;;;;5097749;28;20483;-81
2023/07/10 09:39:30;;;;;;;66.10;3.17;;;25.40;1.00;;;;;;5097566;28;20420;-81
2023/07/10 09:42:04;;;;;;;65.90;2.87;;;25.50;1.00;;;;;;5097689;28;20400;-80
2023/07/10 09:44:37;;;;;;;67.47;2.90;;;25.60;1.00;;;;;;5097558;28;20388;-81
2023/07/10 09:47:14;;;;;;;68.50;2.77;;;25.70;1.00;;;;;;5097641;28;20464;-81
2023/07/10 09:49:53;;;;;;;66.30;2.93;;;25.70;1.00;;;;;;5097730;28;20388;-81
2023/07/10 09:52:30;;;;;;;69.23;3.33;;;25.90;1.00;;;;;;5097559;28;20393;-81
2023/07/10 09:55:11;;;;;;;66.17;3.00;;;26.00;1.00;;;;;;5098219;28;20814;-80
2023/07/10 09:58:00;;;;;;;67.50;3.30;;;26.20;1.00;;;;;;5097271;28;20522;-81
2023/07/10 10:00:28;;;;;;;68.70;3.40;;;26.40;1.00;;;;;;5088171;28;20449;-81
2023/07/10 10:03:01;;;;;;;68.47;3.10;;;26.50;1.00;;;;;;5097269;28;20463;-80
2023/07/10 10:05:28;;;;;;;81.60;3.80;;;26.50;1.00;;;;;;5097277;28;20432;-81
2023/07/10 10:08:02;;;;;;;67.50;3.33;;;26.30;1.00;;;;;;5097519;28;20433;-81
2023/07/10 10:10:33;;;;;;;68.47;3.63;;;26.40;1.00;;;;;;5097522;28;20393;-81
2023/07/10 10:13:15;;;;;;;67.07;3.40;;;26.40;1.00;;;;;;5096952;28;20492;-81
2023/07/10 10:15:50;;;;;;;67.27;3.73;;;26.30;1.00;;;;;;5097252;28;20412;-80
2023/07/10 10:18:39;;;;;;;67.80;3.10;;;26.60;1.00;;;;;;5078126;28;20780;-81
2023/07/10 10:21:15;;;;;;;67.10;2.90;;;27.00;1.00;;;;;;5095759;28;20760;-80
2023/07/10 10:23:43;;;;;;;66.70;2.97;;;27.20;1.00;;;;;;5095866;28;20402;-80
2023/07/10 10:26:27;;;;;;;68.30;2.60;;;27.50;1.00;;;;;;5096217;28;20385;-81
2023/07/10 10:28:59;;;;;;;66.50;2.20;;;27.70;1.00;;;;;;5096673;28;20482;-81
2023/07/10 10:31:33;;;;;;;67.73;2.60;;;27.90;1.00;;;;;;5096539;28;20390;-81
2023/07/10 10:34:10;;;;;;;68.50;2.17;;;27.80;1.00;;;;;;5096440;28;20385;-81
2023/07/10 10:36:43;;;;;;;67.60;2.60;;;27.90;1.00;;;;;;5096273;28;20429;-81
2023/07/10 10:39:32;;;;;;;68.20;2.57;;;28.10;1.00;;;;;;5096364;28;20504;-81
2023/07/10 10:42:03;;;;;;;66.77;2.00;;;28.20;1.00;;;;;;5081964;28;20405;-81
2023/07/10 10:45:14;;;;;;;67.97;2.10;;;28.40;1.00;;;;;;5101265;28;20397;-81
2023/07/10 10:48:10;;;;;;;67.93;2.17;;;28.60;1.00;;;;;;5018532;28;20433;-81
2023/07/10 10:50:44;;;;;;;68.07;2.63;;;28.50;1.00;;;;;;4983428;28;20925;-81
2023/07/10 10:53:21;;;;;;;67.97;2.33;;;28.60;1.00;;;;;;5082698;28;20413;-82
2023/07/10 10:56:24;;;;;;;66.63;2.23;;;28.80;1.00;;;;;;5100660;28;20417;-81
2023/07/10 10:59:09;;;;;;;67.30;2.10;;;28.90;1.00;;;;;;5100702;28;20417;-81
2023/07/10 11:01:48;;;;;;;70.93;2.80;;;29.00;1.00;;;;;;5082155;28;20397;-81
2023/07/10 11:04:37;;;;;;;69.50;2.70;;;29.30;1.00;;;;;;5082442;28;20396;-81
2023/07/10 11:07:10;;;;;;;67.37;2.50;;;29.50;1.00;;;;;;5100491;28;20948;-81
2023/07/10 11:09:41;;;;;;;68.00;2.83;;;29.60;1.00;;;;;;5100731;28;20429;-82
2023/07/10 11:12:19;;;;;;;67.27;2.40;;;29.70;1.00;;;;;;5100245;28;20418;-81
2023/07/10 11:14:46;;;;;;;69.10;2.47;;;29.70;1.00;;;;;;5082651;28;20912;-81
2023/07/10 11:17:13;;;;;;;67.47;2.60;;;29.90;1.00;;;;;;5100499;28;20452;-82
2023/07/10 11:19:39;;;;;;;70.47;2.83;;;30.00;1.00;;;;;;5100803;28;20504;-82
2023/07/10 11:22:24;;;;;;;68.37;2.40;;;30.00;1.00;;;;;;5100722;28;20514;-81
2023/07/10 11:24:52;;;;;;;68.00;2.70;;;30.00;1.00;;;;;;5100269;28;20378;-81
2023/07/10 11:27:32;;;;;;;66.87;2.30;;;29.80;1.00;;;;;;5082160;28;20496;-81
2023/07/10 11:30:07;;;;;;;70.03;2.70;;;29.60;1.00;;;;;;5100182;28;20415;-81
2023/07/10 11:32:53;;;;;;;67.87;2.60;;;29.50;1.00;;;;;;5081407;28;20404;-81
2023/07/10 11:35:20;;;;;;;67.10;2.17;;;29.40;1.00;;;;;;5099400;28;20398;-81
2023/07/10 11:37:49;;;;;;;68.00;2.70;;;29.30;1.00;;;;;;5099668;28;20467;-81
2023/07/10 11:40:23;;;;;;;67.60;2.60;;;29.50;1.00;;;;;;5099083;28;20432;-81
2023/07/10 11:42:50;;;;;;;70.23;2.50;;;29.90;1.00;;;;;;5100242;28;20781;-81
2023/07/10 11:45:16;;;;;;;69.17;2.60;;;30.00;1.00;;;;;;5082329;28;20909;-81
2023/07/10 11:47:44;;;;;;;68.57;2.30;;;30.10;1.00;;;;;;5100080;28;20425;-81
2023/07/10 11:50:22;;;;;;;68.07;2.10;;;30.20;1.00;;;;;;5100952;28;20390;-81
2023/07/10 11:53:23;;;;;;;68.53;2.30;;;30.30;1.00;;;;;;5080824;28;20417;-81
2023/07/10 11:56:03;;;;;;;70.80;2.17;;;30.60;1.00;;;;;;5099531;28;20767;-81
2023/07/10 11:58:31;;;;;;;68.13;2.13;;;30.60;1.00;;;;;;5099925;28;20487;-81
2023/07/10 12:01:04;;;;;;;68.83;2.00;;;30.40;1.00;;;;;;5100021;28;20402;-81
2023/07/10 12:03:34;;;;;;;73.23;2.40;;;30.10;1.00;;;;;;5082648;28;20434;-81
2023/07/10 12:06:00;;;;;;;68.37;2.17;;;30.00;1.00;;;;;;5099177;28;20438;-80
2023/07/10 12:08:30;;;;;;;69.27;2.50;;;30.00;1.00;;;;;;5100026;28;20429;-81
2023/07/10 12:10:55;;;;;;;68.83;2.30;;;30.00;1.00;;;;;;5099853;28;20248;-81
2023/07/10 12:13:30;;;;;;;67.17;2.33;;;29.90;1.00;;;;;;5099393;28;20433;-81
2023/07/10 12:16:09;;;;;;;68.70;2.50;;;29.80;1.00;;;;;;5099136;28;20600;-81
2023/07/10 12:18:38;;;;;;;67.90;2.60;;;30.00;1.00;;;;;;5099511;28;20508;-81
2023/07/10 12:21:18;;;;;;;72.47;2.30;;;30.30;1.00;;;;;;5080625;28;20523;-81
2023/07/10 12:24:01;;;;;;;66.97;2.13;;;30.50;1.00;;;;;;5099327;28;20400;-81
2023/07/10 12:26:29;;;;;;;70.80;2.63;;;30.50;1.00;;;;;;5099680;28;20509;-81
2023/07/10 12:28:57;;;;;;;67.73;3.83;;;30.60;1.00;;;;;;5099677;28;20928;-81
2023/07/10 12:31:24;;;;;;;67.77;3.10;;;30.40;1.00;;;;;;5081491;28;20416;-81
2023/07/10 12:33:52;;;;;;;67.80;3.47;;;30.40;1.00;;;;;;5099118;28;20437;-81
2023/07/10 12:36:27;;;;;;;68.17;3.07;;;30.50;1.00;;;;;;5098547;28;20434;-81
2023/07/10 12:38:57;;;;;;;68.57;2.70;;;30.30;1.00;;;;;;5098855;28;20462;-80
2023/07/10 12:41:22;;;;;;;68.07;2.50;;;29.90;1.00;;;;;;5099078;28;20397;-80
2023/07/10 12:43:57;;;;;;;69.70;2.60;;;29.60;1.00;;;;;;5098707;28;20400;-81
2023/07/10 12:46:29;;;;;;;67.57;2.30;;;29.80;1.00;;;;;;5099921;28;20155;-81
2023/07/10 12:49:15;;;;;;;67.50;2.20;;;29.60;1.00;;;;;;5098513;28;20784;-81
2023/07/10 12:51:45;;;;;;;67.07;2.50;;;29.70;1.00;;;;;;5080369;28;20409;-81